Terminal Aerodrome Forecast
Issued by NWS

Home | Current Version | Previous Version | Text Only | Print | Product List | Glossary On
Versions: 1 2 3 4 5 6 7 8 9 10 11 12 13 14
000
FTUS46 KPDT 172224 AAB
TAFPSC
TAF AMD
KPSC 172224Z 1722/1818 25024G33KT 6SM BLDU FEW070 SCT150
     FM180300 26012KT P6SM SCT200
     FM180600 25005KT P6SM SCT150 BKN180
     FM181400 VRB03KT P6SM SCT080 OVC100=

USA.gov is the U.S. government's official web portal to all federal, state and local government web resources and services.